createdAt,value
2022-09-30T00:01:39.703Z,19.7
2022-09-30T00:03:39.636Z,20.0
2022-09-30T00:05:39.814Z,20.1
2022-09-30T00:07:39.899Z,20.1
2022-09-30T00:09:39.659Z,20.0
2022-09-30T00:11:39.685Z,20.1
2022-09-30T00:13:39.666Z,20.3
2022-09-30T00:15:39.753Z,20.6
2022-09-30T00:17:39.656Z,20.6
2022-09-30T00:19:39.690Z,21.0
2022-09-30T00:21:39.733Z,20.6
2022-09-30T00:23:39.690Z,20.5
2022-09-30T00:25:39.756Z,20.2
2022-09-30T00:27:39.662Z,20.1
2022-09-30T00:29:39.713Z,20.2
2022-09-30T00:31:39.804Z,20.4
2022-09-30T00:33:39.675Z,20.7
2022-09-30T00:35:39.687Z,20.6
2022-09-30T00:37:39.699Z,20.5
2022-09-30T00:39:39.665Z,20.6
2022-09-30T00:41:39.724Z,20.6
2022-09-30T00:43:39.667Z,20.8
2022-09-30T00:45:39.704Z,21.0
2022-09-30T00:47:39.764Z,21.4
2022-09-30T00:49:39.725Z,21.4
2022-09-30T00:51:39.714Z,21.3
2022-09-30T00:53:39.703Z,21.4
2022-09-30T00:55:39.702Z,21.4
2022-09-30T00:57:39.731Z,21.2
2022-09-30T00:59:39.690Z,21.4
2022-09-30T01:01:39.771Z,21.3
2022-09-30T01:03:39.693Z,20.8
2022-09-30T01:05:39.757Z,20.8
2022-09-30T01:07:39.798Z,21.0
2022-09-30T01:09:39.789Z,21.1
2022-09-30T01:11:39.716Z,21.3
2022-09-30T01:13:39.691Z,21.3
2022-09-30T01:15:39.737Z,21.1
2022-09-30T01:17:39.746Z,21.1
2022-09-30T01:19:39.694Z,20.9
2022-09-30T01:21:39.713Z,20.9
2022-09-30T01:23:39.722Z,20.9
2022-09-30T01:25:39.708Z,21.4
2022-09-30T01:27:39.700Z,21.2
2022-09-30T01:29:39.695Z,21.0
2022-09-30T01:31:39.824Z,21.0
2022-09-30T01:33:39.715Z,20.8
2022-09-30T01:35:39.705Z,21.0
2022-09-30T01:37:39.755Z,21.0
2022-09-30T01:40:09.725Z,21.0
2022-09-30T01:42:09.693Z,21.0
2022-09-30T01:44:09.775Z,21.1
2022-09-30T01:46:09.772Z,20.9
2022-09-30T01:48:09.744Z,20.8
2022-09-30T01:50:09.715Z,20.8
2022-09-30T01:52:09.744Z,21.0
2022-09-30T01:54:09.751Z,21.2
2022-09-30T01:56:09.740Z,21.0
2022-09-30T01:58:09.696Z,21.0
2022-09-30T02:00:09.783Z,20.8
2022-09-30T02:02:09.842Z,21.0
2022-09-30T02:04:09.717Z,21.2
2022-09-30T02:06:09.714Z,21.0
2022-09-30T02:08:09.724Z,20.8
2022-09-30T02:10:09.738Z,20.7
2022-09-30T02:12:09.768Z,20.5
2022-09-30T02:14:09.752Z,20.5
2022-09-30T02:16:09.838Z,20.5
2022-09-30T02:18:09.812Z,20.6
2022-09-30T02:20:09.732Z,20.6
2022-09-30T02:22:09.749Z,20.8
2022-09-30T02:24:09.790Z,20.9
2022-09-30T02:26:09.778Z,20.7
2022-09-30T02:28:09.750Z,20.9
2022-09-30T02:30:09.807Z,21.0
2022-09-30T02:32:09.816Z,20.8
2022-09-30T02:34:09.836Z,21.0
2022-09-30T02:36:09.726Z,21.1
2022-09-30T02:38:09.736Z,21.2
2022-09-30T02:40:09.773Z,21.3
2022-09-30T02:42:09.738Z,21.3
2022-09-30T02:44:09.738Z,21.2
2022-09-30T02:46:09.877Z,21.0
2022-09-30T02:48:09.785Z,21.1
2022-09-30T02:50:09.792Z,21.1
2022-09-30T02:52:09.777Z,20.9
2022-09-30T02:54:09.896Z,21.1
2022-09-30T02:56:09.744Z,21.1
2022-09-30T02:58:09.775Z,21.1
2022-09-30T03:00:12.951Z,21.1
2022-09-30T03:02:09.861Z,21.3
2022-09-30T03:04:09.778Z,21.0
2022-09-30T03:06:09.743Z,21.2
2022-09-30T03:08:09.770Z,21.4
2022-09-30T03:10:09.772Z,21.4
2022-09-30T03:12:09.791Z,21.4
2022-09-30T03:14:09.794Z,21.4
2022-09-30T03:16:13.707Z,21.2
2022-09-30T03:18:09.759Z,21.0
2022-09-30T03:20:09.786Z,21.3
2022-09-30T03:22:09.895Z,20.9
2022-09-30T03:24:09.779Z,20.8
2022-09-30T03:26:09.753Z,20.8
2022-09-30T03:28:09.768Z,20.9
2022-09-30T03:30:09.811Z,20.9
2022-09-30T03:32:09.780Z,20.9
2022-09-30T03:34:40.806Z,20.6
2022-09-30T03:36:39.759Z,20.6
2022-09-30T03:38:39.822Z,20.3
2022-09-30T03:40:39.772Z,20.5
2022-09-30T03:42:39.770Z,20.3
2022-09-30T03:44:39.802Z,20.2
2022-09-30T03:46:39.898Z,20.2
2022-09-30T03:48:39.824Z,19.9
2022-09-30T03:50:39.768Z,19.8
2022-09-30T03:52:39.925Z,19.8
2022-09-30T03:54:39.769Z,20.0
2022-09-30T03:56:39.807Z,20.1
2022-09-30T03:58:39.772Z,20.1
2022-09-30T04:00:39.920Z,19.9
2022-09-30T04:02:39.866Z,19.8
2022-09-30T04:04:39.786Z,19.8
2022-09-30T04:06:39.951Z,19.6
2022-09-30T04:08:40.033Z,20.0
2022-09-30T04:10:39.824Z,19.9
2022-09-30T04:12:39.821Z,20.0
2022-09-30T04:14:39.838Z,20.2
2022-09-30T04:16:39.829Z,20.4
2022-09-30T04:18:39.946Z,20.2
2022-09-30T04:20:39.957Z,20.1
2022-09-30T04:22:39.801Z,20.2
2022-09-30T04:24:39.790Z,20.2
2022-09-30T04:26:39.798Z,20.3
2022-09-30T04:28:39.893Z,20.4
2022-09-30T04:30:40.021Z,20.3
2022-09-30T04:32:39.893Z,20.2
2022-09-30T04:34:40.235Z,20.7
2022-09-30T04:36:39.855Z,20.6
2022-09-30T04:38:39.865Z,20.8
2022-09-30T04:40:39.844Z,20.5
2022-09-30T04:42:39.814Z,20.8
2022-09-30T04:44:39.819Z,20.9
2022-09-30T04:46:39.828Z,21.0
2022-09-30T04:48:39.851Z,20.8
2022-09-30T04:50:39.820Z,20.8
2022-09-30T04:52:39.830Z,20.6
2022-09-30T04:54:39.797Z,20.3
2022-09-30T04:56:39.799Z,20.5
2022-09-30T04:58:39.852Z,20.5
2022-09-30T05:00:39.891Z,20.6
2022-09-30T05:02:39.806Z,20.9
2022-09-30T05:04:39.849Z,21.2
2022-09-30T05:06:39.804Z,21.3
2022-09-30T05:08:44.667Z,21.0
2022-09-30T05:10:39.795Z,20.8
2022-09-30T05:12:39.870Z,20.9
2022-09-30T05:14:39.859Z,20.5
2022-09-30T05:16:39.937Z,20.5
2022-09-30T05:18:39.894Z,20.4
2022-09-30T05:20:39.822Z,20.5
2022-09-30T05:22:39.864Z,20.5
2022-09-30T05:24:39.851Z,20.5
2022-09-30T05:26:39.845Z,20.5
2022-09-30T05:29:09.845Z,20.4
2022-09-30T05:31:09.971Z,20.5
2022-09-30T05:33:09.898Z,20.4
2022-09-30T05:35:09.911Z,20.5
2022-09-30T05:37:09.902Z,20.5
2022-09-30T05:39:09.851Z,20.6
2022-09-30T05:41:09.855Z,20.6
2022-09-30T05:43:09.829Z,20.5
2022-09-30T05:45:09.856Z,20.4
2022-09-30T05:47:09.875Z,20.4
2022-09-30T05:49:09.888Z,20.7
2022-09-30T05:51:09.876Z,20.8
2022-09-30T05:53:09.866Z,20.9
2022-09-30T05:55:09.932Z,21.0
2022-09-30T05:57:09.875Z,20.7
2022-09-30T05:59:09.898Z,20.8
2022-09-30T06:01:13.412Z,20.9
2022-09-30T06:03:10.027Z,20.6
2022-09-30T06:05:09.995Z,20.4
2022-09-30T06:07:10.687Z,20.2
2022-09-30T06:09:09.945Z,20.3
2022-09-30T06:11:17.377Z,20.1
2022-09-30T06:12:58.256Z,20.1
2022-09-30T06:14:58.212Z,20.2
2022-09-30T06:16:58.232Z,20.3
2022-09-30T06:18:58.253Z,20.5
2022-09-30T06:20:58.236Z,20.5
2022-09-30T06:22:58.246Z,20.6
2022-09-30T06:24:58.259Z,20.5
2022-09-30T06:26:58.248Z,20.4
2022-09-30T06:28:58.257Z,20.4
2022-09-30T06:30:58.220Z,20.4
2022-09-30T06:32:58.274Z,20.7
2022-09-30T06:34:58.241Z,20.6
2022-09-30T06:37:28.269Z,20.6
2022-09-30T06:39:28.373Z,20.6
2022-09-30T06:41:28.232Z,20.9
2022-09-30T06:43:28.235Z,21.1
2022-09-30T06:45:32.265Z,21.1
2022-09-30T06:47:28.288Z,21.3
2022-09-30T06:49:36.633Z,21.0
2022-09-30T06:51:28.225Z,21.1
2022-09-30T06:53:28.234Z,21.2
2022-09-30T06:55:28.230Z,20.9
2022-09-30T06:57:28.388Z,21.0
2022-09-30T06:59:28.281Z,21.1
2022-09-30T07:01:28.302Z,21.1
2022-09-30T07:03:28.221Z,21.2
2022-09-30T07:05:28.285Z,21.3
2022-09-30T07:07:28.246Z,21.2
2022-09-30T07:09:28.264Z,21.3
2022-09-30T07:11:28.245Z,21.7
2022-09-30T07:13:28.294Z,21.3
2022-09-30T07:15:28.293Z,21.3
2022-09-30T07:17:28.249Z,21.5
2022-09-30T07:19:28.294Z,21.6
2022-09-30T07:21:28.328Z,21.4
2022-09-30T07:23:28.262Z,21.5
2022-09-30T07:25:28.281Z,21.7
2022-09-30T07:27:28.321Z,22.0
2022-09-30T07:29:36.581Z,22.1
2022-09-30T07:31:33.059Z,22.1
2022-09-30T07:33:28.254Z,22.0
2022-09-30T07:35:28.305Z,21.8
2022-09-30T07:37:28.288Z,21.9
2022-09-30T07:39:28.267Z,21.7
2022-09-30T07:41:28.307Z,21.5
2022-09-30T07:43:28.285Z,21.4
2022-09-30T07:45:28.312Z,21.6
2022-09-30T07:47:28.312Z,21.5
2022-09-30T07:49:28.287Z,21.7
2022-09-30T07:51:28.253Z,21.7
2022-09-30T07:53:28.269Z,21.5
2022-09-30T07:55:28.298Z,21.7
2022-09-30T07:57:28.303Z,21.6
2022-09-30T07:59:28.289Z,21.5
2022-09-30T08:01:28.338Z,21.5
2022-09-30T08:03:28.300Z,21.6
2022-09-30T08:05:28.339Z,21.3
2022-09-30T08:07:28.275Z,21.5
2022-09-30T08:09:28.640Z,21.3
2022-09-30T08:11:28.336Z,21.2
2022-09-30T08:13:28.299Z,21.9
2022-09-30T08:15:28.309Z,21.8
2022-09-30T08:17:28.445Z,21.7
2022-09-30T08:19:28.288Z,21.5
2022-09-30T08:21:28.323Z,21.5
2022-09-30T08:23:28.331Z,21.3
2022-09-30T08:25:28.338Z,21.1
2022-09-30T08:27:28.359Z,21.0
2022-09-30T08:29:53.886Z,21.0
2022-09-30T08:31:28.512Z,21.2
2022-09-30T08:33:58.356Z,21.2
2022-09-30T08:35:58.310Z,21.4
2022-09-30T08:37:58.339Z,21.4
2022-09-30T08:39:58.317Z,21.5
2022-09-30T08:42:02.172Z,21.5
2022-09-30T08:43:58.365Z,21.5
2022-09-30T08:45:58.433Z,21.6
2022-09-30T08:47:58.286Z,21.6
2022-09-30T08:49:58.314Z,21.2
2022-09-30T08:51:58.402Z,21.4
2022-09-30T08:53:58.344Z,21.2
2022-09-30T08:55:58.307Z,21.5
2022-09-30T08:57:58.320Z,21.5
2022-09-30T08:59:58.371Z,21.5
2022-09-30T09:01:58.438Z,21.2
2022-09-30T09:03:58.620Z,21.1
2022-09-30T09:05:58.307Z,21.1
2022-09-30T09:07:58.355Z,21.4
2022-09-30T09:09:58.355Z,21.4
2022-09-30T09:11:58.314Z,21.3
2022-09-30T09:13:58.368Z,21.1
2022-09-30T09:15:58.303Z,21.0
2022-09-30T09:18:21.414Z,21.1
2022-09-30T09:19:58.364Z,21.0
2022-09-30T09:21:58.376Z,21.0
2022-09-30T09:23:58.377Z,20.9
2022-09-30T09:25:58.330Z,21.1
2022-09-30T09:27:58.351Z,21.0
2022-09-30T09:29:58.359Z,20.9
2022-09-30T09:31:58.495Z,21.0
2022-09-30T09:33:58.365Z,20.7
2022-09-30T09:35:58.400Z,20.5
2022-09-30T09:37:58.357Z,20.4
2022-09-30T09:40:02.950Z,20.5
2022-09-30T09:41:58.372Z,20.3
2022-09-30T09:43:58.388Z,20.1
2022-09-30T09:45:58.432Z,20.1
2022-09-30T09:47:58.366Z,19.8
2022-09-30T09:49:58.426Z,19.9
2022-09-30T09:51:58.415Z,20.1
2022-09-30T09:53:58.389Z,20.2
2022-09-30T09:55:58.408Z,20.1
2022-09-30T09:57:58.348Z,20.1
2022-09-30T10:01:58.577Z,20.4
2022-09-30T10:03:58.431Z,20.5
2022-09-30T10:05:58.417Z,20.5
2022-09-30T10:07:58.408Z,20.3
2022-09-30T10:09:58.406Z,20.5
2022-09-30T10:11:58.393Z,20.7
2022-09-30T10:13:58.351Z,20.7
2022-09-30T10:15:58.388Z,20.6
2022-09-30T10:17:58.504Z,20.6
2022-09-30T10:19:58.398Z,20.7
2022-09-30T10:21:58.375Z,21.1
2022-09-30T10:23:58.417Z,21.0
2022-09-30T10:25:58.453Z,20.8
2022-09-30T10:27:58.491Z,20.8
2022-09-30T10:29:58.506Z,20.7
2022-09-30T10:31:59.888Z,20.4
2022-09-30T10:34:28.445Z,20.5
2022-09-30T10:36:28.369Z,20.4
2022-09-30T10:38:28.530Z,20.3
2022-09-30T10:40:28.501Z,20.2
2022-09-30T10:42:28.440Z,20.1
2022-09-30T10:44:28.375Z,20.3
2022-09-30T10:46:28.537Z,20.0
2022-09-30T10:48:28.384Z,20.2
2022-09-30T10:50:28.430Z,20.4
2022-09-30T10:52:28.462Z,20.3
2022-09-30T10:54:28.396Z,20.2
2022-09-30T10:56:28.417Z,20.0
2022-09-30T10:58:28.434Z,19.9
2022-09-30T11:00:29.502Z,20.1
2022-09-30T11:02:28.402Z,20.3
2022-09-30T11:04:28.433Z,20.4
2022-09-30T11:06:28.686Z,20.4
2022-09-30T11:08:28.430Z,20.4
2022-09-30T11:10:28.429Z,20.4
2022-09-30T11:12:28.439Z,19.8
2022-09-30T11:14:28.464Z,19.7
2022-09-30T11:16:28.772Z,19.9
2022-09-30T11:18:28.472Z,19.9
2022-09-30T11:20:28.509Z,19.9
2022-09-30T11:22:28.409Z,19.8
2022-09-30T11:24:28.452Z,19.8
2022-09-30T11:26:28.779Z,20.0
2022-09-30T11:28:28.492Z,20.1
2022-09-30T11:30:28.413Z,20.1
2022-09-30T11:32:28.428Z,20.5
2022-09-30T11:34:28.472Z,20.3
2022-09-30T11:36:28.764Z,20.3
2022-09-30T11:38:28.449Z,20.2
2022-09-30T11:40:28.422Z,20.0
2022-09-30T11:42:28.429Z,20.3
2022-09-30T11:44:28.554Z,20.3
2022-09-30T11:46:28.834Z,20.5
2022-09-30T11:48:32.673Z,20.4
2022-09-30T11:50:28.584Z,20.3
2022-09-30T11:52:28.595Z,20.3
2022-09-30T11:54:28.838Z,20.6
2022-09-30T11:56:28.714Z,20.7
2022-09-30T11:58:40.972Z,20.8
2022-09-30T12:00:28.567Z,20.8
2022-09-30T12:02:28.633Z,20.6
2022-09-30T12:04:28.435Z,20.5
2022-09-30T12:06:28.625Z,20.4
2022-09-30T12:08:28.588Z,20.5
2022-09-30T12:10:28.510Z,20.5
2022-09-30T12:12:28.495Z,20.5
2022-09-30T12:14:28.536Z,20.5
2022-09-30T12:16:28.722Z,20.6
2022-09-30T12:18:28.559Z,20.6
2022-09-30T12:20:28.505Z,20.6
2022-09-30T12:22:29.567Z,20.4
2022-09-30T12:24:28.627Z,20.6
2022-09-30T12:26:28.723Z,20.3
2022-09-30T12:28:28.605Z,20.1
2022-09-30T12:30:28.539Z,20.0
2022-09-30T12:32:28.563Z,20.0
2022-09-30T12:34:28.578Z,20.3
2022-09-30T12:36:28.938Z,20.4
2022-09-30T12:38:58.536Z,20.5
2022-09-30T12:40:58.513Z,20.8
2022-09-30T12:42:58.544Z,20.9
2022-09-30T12:44:58.588Z,20.9
2022-09-30T12:46:58.557Z,21.2
2022-09-30T12:48:58.479Z,21.2
2022-09-30T12:50:58.640Z,21.2
2022-09-30T12:52:58.808Z,21.0
2022-09-30T12:54:58.674Z,20.8
2022-09-30T12:56:58.526Z,20.7
2022-09-30T12:58:58.719Z,20.4
2022-09-30T13:01:05.034Z,20.2
2022-09-30T13:02:58.666Z,20.5
2022-09-30T13:09:05.410Z,20.5
2022-09-30T13:11:05.512Z,20.7
2022-09-30T13:13:05.402Z,20.6
2022-09-30T13:15:08.953Z,20.7
2022-09-30T13:17:05.334Z,20.9
2022-09-30T13:19:05.365Z,21.0
2022-09-30T13:21:05.376Z,20.9
2022-09-30T13:23:05.414Z,20.9
2022-09-30T13:25:05.328Z,21.1
2022-09-30T13:27:05.341Z,21.5
2022-09-30T13:29:05.325Z,21.6
2022-09-30T13:31:05.314Z,21.6
2022-09-30T13:33:05.344Z,21.4
2022-09-30T13:35:05.300Z,21.3
2022-09-30T13:37:05.358Z,21.4
2022-09-30T13:39:05.364Z,21.4
2022-09-30T13:41:05.371Z,21.2
2022-09-30T13:43:05.403Z,21.0
2022-09-30T13:45:05.390Z,20.6
2022-09-30T13:47:05.329Z,20.3
2022-09-30T13:49:05.570Z,20.3
2022-09-30T13:51:05.546Z,20.0
2022-09-30T13:53:05.382Z,20.0
2022-09-30T13:55:05.411Z,20.1
2022-09-30T13:57:05.487Z,20.0
2022-09-30T13:59:05.506Z,20.1
2022-09-30T14:01:05.481Z,19.9
2022-09-30T14:03:05.520Z,19.6
2022-09-30T14:05:05.402Z,19.5
2022-09-30T14:07:05.371Z,19.3
2022-09-30T14:09:05.452Z,19.0
2022-09-30T14:11:05.487Z,18.7
2022-09-30T14:13:05.455Z,18.8
2022-09-30T14:15:05.356Z,18.9
2022-09-30T14:17:05.460Z,18.9
2022-09-30T14:19:05.366Z,18.7
2022-09-30T14:21:05.397Z,18.7
2022-09-30T14:23:05.427Z,18.6
2022-09-30T14:25:05.360Z,18.7
2022-09-30T14:27:05.477Z,18.6
2022-09-30T14:29:05.495Z,18.8
2022-09-30T14:31:05.362Z,18.4
2022-09-30T14:33:05.400Z,18.6
2022-09-30T14:35:05.392Z,18.6
2022-09-30T14:37:05.467Z,18.5
2022-09-30T14:39:05.441Z,18.4
2022-09-30T14:41:05.499Z,18.3
2022-09-30T14:43:05.487Z,18.3
2022-09-30T14:45:05.475Z,18.4
2022-09-30T14:47:05.421Z,18.4
2022-09-30T14:49:05.390Z,18.4
2022-09-30T14:51:05.400Z,18.4
2022-09-30T14:53:05.418Z,18.6
2022-09-30T14:55:05.458Z,19.0
2022-09-30T14:57:05.499Z,19.1
2022-09-30T14:59:05.454Z,19.0
2022-09-30T15:01:05.532Z,19.2
2022-09-30T15:03:05.467Z,19.4
2022-09-30T15:05:05.466Z,19.5
2022-09-30T15:07:05.525Z,19.8
2022-09-30T15:09:35.459Z,20.0
2022-09-30T15:11:39.501Z,20.2
2022-09-30T15:13:35.513Z,20.1
2022-09-30T15:15:35.504Z,20.1
2022-09-30T15:17:35.425Z,19.8
2022-09-30T15:19:35.410Z,19.7
2022-09-30T15:21:35.513Z,20.1
2022-09-30T15:23:35.468Z,20.0
2022-09-30T15:25:35.486Z,20.0
2022-09-30T15:27:35.503Z,19.9
2022-09-30T15:29:35.631Z,19.9
2022-09-30T15:31:35.623Z,19.8
2022-09-30T15:33:35.637Z,20.1
2022-09-30T15:35:35.598Z,20.0
2022-09-30T15:37:35.732Z,20.1
2022-09-30T15:39:35.540Z,20.2
2022-09-30T15:41:35.504Z,20.0
2022-09-30T15:43:35.701Z,20.1
2022-09-30T15:45:36.272Z,20.1
2022-09-30T15:47:36.899Z,20.1
2022-09-30T15:49:35.570Z,20.0
2022-09-30T15:51:35.526Z,20.1
2022-09-30T15:53:35.609Z,19.9
2022-09-30T15:55:36.801Z,19.4
2022-09-30T15:57:35.514Z,19.5
2022-09-30T15:59:35.487Z,19.8
2022-09-30T16:01:35.513Z,19.7
2022-09-30T16:03:35.634Z,19.5
2022-09-30T16:05:35.433Z,19.7
2022-09-30T16:07:35.453Z,19.4
2022-09-30T16:09:35.469Z,19.5
2022-09-30T16:11:35.524Z,19.3
2022-09-30T16:13:35.518Z,19.2
2022-09-30T16:15:35.776Z,19.4
2022-09-30T16:17:35.537Z,19.3
2022-09-30T16:19:35.464Z,19.3
2022-09-30T16:21:35.486Z,19.4
2022-09-30T16:23:35.548Z,19.2
2022-09-30T16:25:35.496Z,19.2
2022-09-30T16:27:36.971Z,18.9
2022-09-30T16:29:35.571Z,19.1
2022-09-30T16:31:35.639Z,19.2
2022-09-30T16:33:35.532Z,18.7
2022-09-30T16:35:35.475Z,18.9
2022-09-30T16:37:35.491Z,19.1
2022-09-30T16:39:35.511Z,19.1
2022-09-30T16:41:35.532Z,19.3
2022-09-30T16:43:35.519Z,19.1
2022-09-30T16:45:35.758Z,19.4
2022-09-30T16:47:35.575Z,19.4
2022-09-30T16:49:35.523Z,19.3
2022-09-30T16:51:35.488Z,19.2
2022-09-30T16:53:35.501Z,19.2
2022-09-30T16:55:35.502Z,19.3
2022-09-30T16:57:35.900Z,19.4
2022-09-30T16:59:35.613Z,19.0
2022-09-30T17:01:35.748Z,19.2
2022-09-30T17:03:35.739Z,19.3
2022-09-30T17:05:39.098Z,19.0
2022-09-30T17:08:05.721Z,19.0
2022-09-30T17:10:05.746Z,18.9
2022-09-30T17:12:05.681Z,19.1
2022-09-30T17:14:05.843Z,19.2
2022-09-30T17:16:06.317Z,19.1
2022-09-30T17:18:05.770Z,19.1
2022-09-30T17:20:05.806Z,19.2
2022-09-30T17:22:05.527Z,19.3
2022-09-30T17:24:05.705Z,19.3
2022-09-30T17:26:05.517Z,19.1
2022-09-30T17:28:05.567Z,19.2
2022-09-30T17:30:05.538Z,19.2
2022-09-30T17:32:05.509Z,19.5
2022-09-30T17:34:05.822Z,19.5
2022-09-30T17:36:05.506Z,19.5
2022-09-30T17:38:05.549Z,19.5
2022-09-30T17:40:05.528Z,19.4
2022-09-30T17:42:05.574Z,19.4
2022-09-30T17:44:05.569Z,19.5
2022-09-30T17:46:05.688Z,19.3
2022-09-30T17:48:05.616Z,19.5
2022-09-30T17:50:05.577Z,19.6
2022-09-30T17:52:05.528Z,19.6
2022-09-30T17:54:05.523Z,19.7
2022-09-30T17:56:05.615Z,19.6
2022-09-30T17:58:05.601Z,19.8
2022-09-30T18:00:05.606Z,19.8
2022-09-30T18:02:06.535Z,19.6
2022-09-30T18:04:05.605Z,19.5
2022-09-30T18:06:05.598Z,19.7
2022-09-30T18:08:05.517Z,19.8
2022-09-30T18:10:08.279Z,19.7
2022-09-30T18:12:05.546Z,19.8
2022-09-30T18:14:05.573Z,19.6
2022-09-30T18:16:05.688Z,19.4
2022-09-30T18:18:07.568Z,19.8
2022-09-30T18:20:05.595Z,19.9
2022-09-30T18:22:05.514Z,19.5
2022-09-30T18:24:05.543Z,19.5
2022-09-30T18:26:05.571Z,19.7
2022-09-30T18:28:05.619Z,19.8
2022-09-30T18:30:05.605Z,19.8
2022-09-30T18:32:05.711Z,19.8
2022-09-30T18:34:05.682Z,19.9
2022-09-30T18:36:05.655Z,19.9
2022-09-30T18:38:05.604Z,19.6
2022-09-30T18:40:05.532Z,19.7
2022-09-30T18:42:05.599Z,19.8
2022-09-30T18:44:05.650Z,20.1
2022-09-30T18:46:05.665Z,20.2
2022-09-30T18:48:05.643Z,20.1
2022-09-30T18:50:05.632Z,20.2
2022-09-30T18:52:05.549Z,20.4
2022-09-30T18:54:05.602Z,20.5
2022-09-30T18:56:05.591Z,20.4
2022-09-30T18:58:05.607Z,20.3
2022-09-30T19:00:35.661Z,20.6
2022-09-30T19:02:35.854Z,20.5
2022-09-30T19:04:35.791Z,20.3
2022-09-30T19:06:35.666Z,20.4
2022-09-30T19:08:35.614Z,20.6
2022-09-30T19:10:35.614Z,20.5
2022-09-30T19:12:35.627Z,20.6
2022-09-30T19:14:35.620Z,20.7
2022-09-30T19:16:38.774Z,20.5
2022-09-30T19:18:36.634Z,20.2
2022-09-30T19:20:36.589Z,20.0
2022-09-30T19:22:35.569Z,20.4
2022-09-30T19:24:35.864Z,20.4
2022-09-30T19:26:35.617Z,20.3
2022-09-30T19:28:35.593Z,20.1
2022-09-30T19:30:35.663Z,19.5
2022-09-30T19:32:35.604Z,19.8
2022-09-30T19:34:35.553Z,20.0
2022-09-30T19:36:45.030Z,20.0
2022-09-30T19:38:37.773Z,20.0
2022-09-30T19:40:35.601Z,20.0
2022-09-30T19:42:35.900Z,19.8
2022-09-30T19:44:35.661Z,19.6
2022-09-30T19:46:35.665Z,19.4
2022-09-30T19:48:38.488Z,19.4
2022-09-30T19:50:35.570Z,19.4
2022-09-30T19:52:37.541Z,19.2
2022-09-30T19:54:40.238Z,19.3
2022-09-30T19:56:35.574Z,19.3
2022-09-30T19:58:35.630Z,19.7
2022-09-30T20:00:35.686Z,19.5
2022-09-30T20:02:35.752Z,19.7
2022-09-30T20:04:35.803Z,19.9
2022-09-30T20:06:35.775Z,19.8
2022-09-30T20:08:35.666Z,19.6
2022-09-30T20:10:35.759Z,19.7
2022-09-30T20:12:35.638Z,19.7
2022-09-30T20:14:36.099Z,19.7
2022-09-30T20:16:35.715Z,20.0
2022-09-30T20:18:35.809Z,19.9
2022-09-30T20:20:45.319Z,20.0
2022-09-30T20:22:45.376Z,19.9
2022-09-30T20:24:45.458Z,19.9
2022-09-30T20:26:45.354Z,20.0
2022-09-30T20:28:45.389Z,20.1
2022-09-30T20:30:45.379Z,20.6
2022-09-30T20:32:45.430Z,20.3
2022-09-30T20:34:45.295Z,20.3
2022-09-30T20:36:45.350Z,20.3
2022-09-30T20:38:45.380Z,20.0
2022-09-30T20:40:46.399Z,20.1
2022-09-30T20:42:45.408Z,20.2
2022-09-30T20:44:45.425Z,20.3
2022-09-30T20:46:45.327Z,20.3
2022-09-30T20:48:45.275Z,20.2
2022-09-30T20:50:45.321Z,19.8
2022-09-30T20:52:45.369Z,19.8
2022-09-30T20:54:45.533Z,19.9
2022-09-30T20:57:06.222Z,19.8
2022-09-30T20:58:45.397Z,19.4
2022-09-30T21:00:45.465Z,19.4
2022-09-30T21:02:45.455Z,19.3
2022-09-30T21:04:48.478Z,19.2
2022-09-30T21:06:45.453Z,19.6
2022-09-30T21:08:45.379Z,19.8
2022-09-30T21:10:45.424Z,19.7
2022-09-30T21:12:45.383Z,19.9
2022-09-30T21:14:45.381Z,19.8
2022-09-30T21:16:45.384Z,19.6
2022-09-30T21:18:45.334Z,19.7
2022-09-30T21:20:45.366Z,19.6
2022-09-30T21:22:45.430Z,19.8
2022-09-30T21:24:45.417Z,19.6
2022-09-30T21:27:15.367Z,19.6
2022-09-30T21:29:15.430Z,19.6
2022-09-30T21:31:15.485Z,19.4
2022-09-30T21:33:15.388Z,19.5
2022-09-30T21:35:15.323Z,19.4
2022-09-30T21:37:15.422Z,19.5
2022-09-30T21:39:15.332Z,19.8
2022-09-30T21:41:15.377Z,19.8
2022-09-30T21:43:15.452Z,19.6
2022-09-30T21:45:15.433Z,19.6
2022-09-30T21:47:15.468Z,19.6
2022-09-30T21:49:15.307Z,19.6
2022-09-30T21:51:15.361Z,19.8
2022-09-30T21:53:15.355Z,20.0
2022-09-30T21:55:15.371Z,19.9
2022-09-30T21:57:15.347Z,20.0
2022-09-30T21:59:15.431Z,20.2
2022-09-30T22:01:15.464Z,20.2
2022-09-30T22:03:15.352Z,20.4
2022-09-30T22:05:15.328Z,20.4
2022-09-30T22:07:15.329Z,20.1
2022-09-30T22:09:15.411Z,19.9
2022-09-30T22:11:15.386Z,20.1
2022-09-30T22:13:15.465Z,20.0
2022-09-30T22:15:15.388Z,20.1
2022-09-30T22:17:15.459Z,20.0
2022-09-30T22:19:15.400Z,20.2
2022-09-30T22:21:15.418Z,20.2
2022-09-30T22:23:15.378Z,20.0
2022-09-30T22:25:15.383Z,20.3
2022-09-30T22:27:15.406Z,20.3
2022-09-30T22:29:15.451Z,20.5
2022-09-30T22:31:15.475Z,20.3
2022-09-30T22:33:15.353Z,20.3
2022-09-30T22:35:15.476Z,20.5
2022-09-30T22:37:15.400Z,20.6
2022-09-30T22:39:15.397Z,20.6
2022-09-30T22:41:16.458Z,20.5
2022-09-30T22:43:15.418Z,20.4
2022-09-30T22:45:15.471Z,20.4
2022-09-30T22:47:15.474Z,20.5
2022-09-30T22:49:15.375Z,20.6
2022-09-30T22:51:15.355Z,20.6
2022-09-30T22:53:15.374Z,20.7
2022-09-30T22:55:15.429Z,20.6
2022-09-30T22:57:15.434Z,20.5
2022-09-30T22:59:15.425Z,20.3
2022-09-30T23:01:15.476Z,20.2
2022-09-30T23:03:15.535Z,20.2
2022-09-30T23:05:15.322Z,20.1
2022-09-30T23:07:15.358Z,19.8
2022-09-30T23:09:15.369Z,20.0
2022-09-30T23:11:15.396Z,19.9
2022-09-30T23:13:15.461Z,20.0
2022-09-30T23:15:15.413Z,20.0
2022-09-30T23:17:15.495Z,20.0
2022-09-30T23:19:45.359Z,20.3
2022-09-30T23:21:45.516Z,20.1
2022-09-30T23:23:45.464Z,20.1
2022-09-30T23:25:45.378Z,19.8
2022-09-30T23:27:45.469Z,19.7
2022-09-30T23:29:45.344Z,19.6
2022-09-30T23:31:45.434Z,19.5
2022-09-30T23:33:45.366Z,19.2
2022-09-30T23:35:45.403Z,19.2
2022-09-30T23:37:45.403Z,19.0
2022-09-30T23:39:45.412Z,19.0
2022-09-30T23:41:45.371Z,18.9
2022-09-30T23:43:45.426Z,19.0
2022-09-30T23:45:45.497Z,19.0
2022-09-30T23:47:45.354Z,19.0
2022-09-30T23:49:45.392Z,18.8
2022-09-30T23:51:45.416Z,18.9
2022-09-30T23:53:45.364Z,18.9
2022-09-30T23:55:45.370Z,18.9
2022-09-30T23:57:45.415Z,19.0
2022-09-30T23:59:45.356Z,18.9
